createdAt,value
2022-08-07T00:01:44.272Z,100060.56
2022-08-07T00:04:15.523Z,100046.28
2022-08-07T00:06:51.334Z,100058.06
2022-08-07T00:09:22.323Z,100057.63
2022-08-07T00:11:55.861Z,100052.28
2022-08-07T00:14:31.370Z,100052.28
2022-08-07T00:17:01.807Z,100050.84
2022-08-07T00:19:56.048Z,100050.84
2022-08-07T00:22:24.500Z,100051.47
2022-08-07T00:25:05.541Z,100051.88
2022-08-07T00:27:52.284Z,100054.75
2022-08-07T00:30:28.246Z,100058.47
2022-08-07T00:32:58.612Z,100053.91
2022-08-07T00:35:29.709Z,100053.94
2022-08-07T00:37:59.468Z,100047.31
2022-08-07T00:40:39.228Z,100047.94
2022-08-07T00:44:00.854Z,100051.03
2022-08-07T00:45:59.675Z,100054.56
2022-08-07T00:48:31.830Z,100064.66
2022-08-07T00:51:02.905Z,100050.81
2022-08-07T00:53:39.247Z,100053.09
2022-08-07T00:56:19.616Z,100056.41
2022-08-07T00:58:50.007Z,100055.16
2022-08-07T01:01:20.495Z,100059.69
2022-08-07T01:03:55.865Z,100059.91
2022-08-07T01:06:29.727Z,100053.50
2022-08-07T01:09:00.775Z,100049.38
2022-08-07T01:12:23.647Z,100053.06
2022-08-07T01:14:28.886Z,100066.69
2022-08-07T01:16:59.368Z,100049.13
2022-08-07T01:19:32.167Z,100054.31
2022-08-07T01:22:08.676Z,100048.53
2022-08-07T01:24:42.739Z,100050.59
2022-08-07T01:27:19.256Z,100057.84
2022-08-07T01:29:48.535Z,100059.28
2022-08-07T01:32:22.496Z,100046.25
2022-08-07T01:34:55.579Z,100053.06
2022-08-07T01:37:29.533Z,100054.09
2022-08-07T01:40:04.950Z,100055.31
2022-08-07T01:42:57.312Z,100063.19
2022-08-07T01:45:37.240Z,100057.41
2022-08-07T01:48:18.255Z,100061.13
2022-08-07T01:50:55.677Z,100065.44
2022-08-07T01:54:09.429Z,100060.47
2022-08-07T01:56:23.540Z,100059.63
2022-08-07T01:59:02.360Z,100060.47
2022-08-07T02:02:02.855Z,100064.19
2022-08-07T02:04:30.424Z,100057.75
2022-08-07T02:07:04.243Z,100063.38
2022-08-07T02:09:53.008Z,100065.22
2022-08-07T02:12:29.178Z,100061.25
2022-08-07T02:15:01.826Z,100061.22
2022-08-07T02:17:49.560Z,100066.22
2022-08-07T02:20:23.704Z,100063.53
2022-08-07T02:22:59.935Z,100062.69
2022-08-07T02:26:26.594Z,100060.84
2022-08-07T02:28:24.638Z,100062.88
2022-08-07T02:30:58.935Z,100068.66
2022-08-07T02:33:41.971Z,100073.59
2022-08-07T02:36:28.599Z,100072.38
2022-08-07T02:39:09.202Z,100079.00
2022-08-07T02:41:54.543Z,100071.94
2022-08-07T02:44:34.297Z,100078.78
2022-08-07T02:47:07.360Z,100083.31
2022-08-07T02:49:58.067Z,100088.91
2022-08-07T02:52:30.974Z,100079.63
2022-08-07T02:55:04.138Z,100082.56
2022-08-07T02:57:37.727Z,100091.38
2022-08-07T03:00:11.233Z,100088.47
2022-08-07T03:02:54.232Z,100089.13
2022-08-07T03:05:25.590Z,100094.88
2022-08-07T03:08:07.356Z,100088.88
2022-08-07T03:10:46.895Z,100091.75
2022-08-07T03:13:22.372Z,100088.47
2022-08-07T03:15:56.583Z,100092.59
2022-08-07T03:18:34.131Z,100094.03
2022-08-07T03:21:04.619Z,100087.84
2022-08-07T03:24:20.228Z,100093.63
2022-08-07T03:26:32.009Z,100097.31
2022-08-07T03:29:10.424Z,100092.97
2022-08-07T03:31:46.454Z,100092.78
2022-08-07T03:34:22.217Z,100097.13
2022-08-07T03:36:57.394Z,100101.03
2022-08-07T03:39:46.266Z,100095.69
2022-08-07T03:42:20.049Z,100096.72
2022-08-07T03:44:53.598Z,100101.25
2022-08-07T03:47:29.575Z,100095.69
2022-08-07T03:50:19.654Z,100102.94
2022-08-07T03:52:53.863Z,100098.19
2022-08-07T03:55:24.000Z,100098.81
2022-08-07T03:59:04.710Z,100095.09
2022-08-07T04:01:07.396Z,100099.44
2022-08-07T04:03:49.954Z,100099.72
2022-08-07T04:06:37.698Z,100107.59
2022-08-07T04:09:16.098Z,100104.94
2022-08-07T04:12:26.431Z,100096.50
2022-08-07T04:14:45.978Z,100098.56
2022-08-07T04:17:21.051Z,100103.94
2022-08-07T04:20:12.058Z,100100.22
2022-08-07T04:22:53.607Z,100099.03
2022-08-07T04:25:31.710Z,100113.91
2022-08-07T04:28:10.397Z,100109.75
2022-08-07T04:30:43.730Z,100115.13
2022-08-07T04:33:30.592Z,100113.91
2022-08-07T04:36:01.192Z,100104.59
2022-08-07T04:38:35.630Z,100116.19
2022-08-07T04:41:04.510Z,100117.81
2022-08-07T04:44:12.588Z,100122.19
2022-08-07T04:46:59.381Z,100122.59
2022-08-07T04:49:40.038Z,100123.41
2022-08-07T04:52:20.844Z,100122.81
2022-08-07T04:55:14.867Z,100123.19
2022-08-07T04:58:11.902Z,100120.13
2022-08-07T05:00:51.639Z,100113.09
2022-08-07T05:03:59.535Z,100117.03
2022-08-07T05:06:23.625Z,100121.13
2022-08-07T05:09:02.804Z,100123.84
2022-08-07T05:11:57.034Z,100115.19
2022-08-07T05:14:54.376Z,100124.25
2022-08-07T05:17:52.698Z,100117.66
2022-08-07T05:20:18.213Z,100116.44
2022-08-07T05:22:50.896Z,100127.56
2022-08-07T05:25:25.679Z,100120.16
2022-08-07T05:28:20.075Z,100123.06
2022-08-07T05:30:53.425Z,100126.78
2022-08-07T05:33:23.717Z,100116.88
2022-08-07T05:35:56.050Z,100128.88
2022-08-07T05:39:01.015Z,100123.09
2022-08-07T05:41:18.450Z,100128.47
2022-08-07T05:44:08.201Z,100131.75
2022-08-07T05:46:44.010Z,100137.78
2022-08-07T05:49:14.460Z,100136.34
2022-08-07T05:51:47.720Z,100146.03
2022-08-07T05:54:31.008Z,100139.66
2022-08-07T05:57:13.562Z,100134.88
2022-08-07T05:59:58.022Z,100134.47
2022-08-07T06:02:32.359Z,100137.56
2022-08-07T06:05:07.116Z,100138.63
2022-08-07T06:08:14.430Z,100145.22
2022-08-07T06:10:29.010Z,100145.22
2022-08-07T06:12:58.816Z,100152.66
2022-08-07T06:15:39.362Z,100148.31
2022-08-07T06:18:14.327Z,100148.97
2022-08-07T06:20:49.780Z,100144.59
2022-08-07T06:24:36.975Z,100146.44
2022-08-07T06:26:18.359Z,100148.72
2022-08-07T06:28:52.773Z,100143.75
2022-08-07T06:31:38.332Z,100143.56
2022-08-07T06:34:07.725Z,100148.53
2022-08-07T06:36:37.184Z,100137.97
2022-08-07T06:40:13.237Z,100149.38
2022-08-07T06:42:04.430Z,100148.34
2022-08-07T06:45:03.673Z,100161.34
2022-08-07T06:47:48.244Z,100158.03
2022-08-07T06:50:21.171Z,100161.38
2022-08-07T06:52:55.692Z,100153.69
2022-08-07T06:55:53.859Z,100148.31
2022-08-07T06:58:27.435Z,100142.94
2022-08-07T07:01:04.722Z,100144.59
2022-08-07T07:03:47.965Z,100152.25
2022-08-07T07:06:26.163Z,100160.75
2022-08-07T07:08:56.807Z,100156.63
2022-08-07T07:12:08.782Z,100157.47
2022-08-07T07:14:18.994Z,100155.38
2022-08-07T07:16:54.348Z,100155.78
2022-08-07T07:19:57.375Z,100153.31
2022-08-07T07:22:36.161Z,100150.84
2022-08-07T07:26:35.224Z,100147.50
2022-08-07T07:28:41.923Z,100153.53
2022-08-07T07:31:07.061Z,100161.59
2022-08-07T07:33:37.528Z,100154.13
2022-08-07T07:36:13.210Z,100158.47
2022-08-07T07:38:47.616Z,100153.53
2022-08-07T07:41:18.847Z,100157.63
2022-08-07T07:44:17.609Z,100153.53
2022-08-07T07:46:56.071Z,100154.75
2022-08-07T07:50:31.386Z,100153.50
2022-08-07T07:52:18.669Z,100156.59
2022-08-07T07:54:51.208Z,100154.75
2022-08-07T07:57:51.683Z,100157.47
2022-08-07T08:00:21.083Z,100159.09
2022-08-07T08:03:06.808Z,100158.91
2022-08-07T08:05:53.615Z,100155.59
2022-08-07T08:08:35.585Z,100164.06
2022-08-07T08:11:16.039Z,100158.25
2022-08-07T08:13:53.910Z,100162.19
2022-08-07T08:16:30.978Z,100156.63
2022-08-07T08:19:09.623Z,100160.56
2022-08-07T08:22:06.468Z,100154.53
2022-08-07T08:25:09.412Z,100153.09
2022-08-07T08:27:57.073Z,100155.38
2022-08-07T08:30:35.054Z,100158.28
2022-08-07T08:33:17.063Z,100153.72
2022-08-07T08:35:51.118Z,100156.22
2022-08-07T08:38:29.212Z,100157.44
2022-08-07T08:41:07.177Z,100163.25
2022-08-07T08:43:55.904Z,100159.94
2022-08-07T08:46:38.184Z,100156.22
2022-08-07T08:49:17.490Z,100159.53
2022-08-07T08:52:14.324Z,100156.63
2022-08-07T08:54:50.968Z,100153.16
2022-08-07T08:57:30.263Z,100146.66
2022-08-07T09:00:06.997Z,100151.44
2022-08-07T09:02:49.745Z,100159.97
2022-08-07T09:05:37.140Z,100154.13
2022-08-07T09:08:28.492Z,100155.38
2022-08-07T09:11:08.272Z,100146.72
2022-08-07T09:13:44.574Z,100145.06
2022-08-07T09:16:30.163Z,100148.75
2022-08-07T09:19:51.017Z,100150.47
2022-08-07T09:24:30.792Z,100146.25
2022-08-07T09:25:26.010Z,100148.94
2022-08-07T09:28:03.884Z,100156.22
2022-08-07T09:30:49.682Z,100153.97
2022-08-07T09:33:56.817Z,100157.88
2022-08-07T09:36:35.674Z,100157.03
2022-08-07T09:39:52.489Z,100156.00
2022-08-07T09:43:40.604Z,100153.31
2022-08-07T09:47:49.764Z,100152.06
2022-08-07T09:49:59.796Z,100147.50
2022-08-07T09:52:34.311Z,100155.19
2022-08-07T09:55:17.380Z,100146.72
2022-08-07T09:58:32.935Z,100153.97
2022-08-07T10:01:52.350Z,100146.47
2022-08-07T10:04:33.027Z,100138.00
2022-08-07T10:07:25.762Z,100142.97
2022-08-07T10:10:21.459Z,100142.97
2022-08-07T10:13:55.053Z,100143.38
2022-08-07T10:16:38.428Z,100148.16
2022-08-07T10:19:24.505Z,100150.84
2022-08-07T10:22:15.617Z,100129.91
2022-08-07T10:24:57.612Z,100142.53
2022-08-07T10:27:46.674Z,100148.53
2022-08-07T10:30:20.158Z,100137.59
2022-08-07T10:33:08.543Z,100140.91
2022-08-07T10:36:10.901Z,100137.59
2022-08-07T10:38:54.103Z,100133.63
2022-08-07T10:41:51.452Z,100134.28
2022-08-07T10:44:28.805Z,100140.47
2022-08-07T10:47:18.033Z,100124.13
2022-08-07T10:49:58.168Z,100133.44
2022-08-07T10:52:37.019Z,100134.50
2022-08-07T10:55:26.980Z,100130.13
2022-08-07T10:58:16.777Z,100137.19
2022-08-07T11:00:56.368Z,100137.19
2022-08-07T11:03:52.498Z,100160.56
2022-08-07T11:06:34.689Z,100143.00
2022-08-07T11:09:11.504Z,100141.31
2022-08-07T11:11:51.950Z,100133.03
2022-08-07T11:14:44.576Z,100132.19
2022-08-07T11:17:42.819Z,100133.03
2022-08-07T11:20:19.518Z,100126.00
2022-08-07T11:23:02.036Z,100135.09
2022-08-07T11:25:48.026Z,100131.78
2022-08-07T11:28:24.870Z,100126.81
2022-08-07T11:30:59.158Z,100116.47
2022-08-07T11:33:58.562Z,100113.16
2022-08-07T11:36:41.114Z,100115.66
2022-08-07T11:39:58.834Z,100115.03
2022-08-07T11:42:29.805Z,100113.59
2022-08-07T11:45:12.351Z,100113.34
2022-08-07T11:47:59.596Z,100110.66
2022-08-07T11:50:58.157Z,100108.19
2022-08-07T11:53:43.249Z,100117.28
2022-08-07T11:56:46.619Z,100103.63
2022-08-07T12:00:12.088Z,100107.78
2022-08-07T12:02:52.164Z,100093.28
2022-08-07T12:05:47.085Z,100098.66
2022-08-07T12:08:25.745Z,100094.53
2022-08-07T12:11:20.391Z,100095.56
2022-08-07T12:13:58.275Z,100097.84
2022-08-07T12:16:30.719Z,100099.47
2022-08-07T12:19:10.795Z,100094.31
2022-08-07T12:22:36.542Z,100093.91
2022-08-07T12:25:07.511Z,100085.59
2022-08-07T12:28:08.555Z,100091.81
2022-08-07T12:30:37.417Z,100083.75
2022-08-07T12:33:23.424Z,100085.78
2022-08-07T12:35:58.495Z,100083.09
2022-08-07T12:38:42.591Z,100085.41
2022-08-07T12:41:14.085Z,100076.06
2022-08-07T12:44:02.316Z,100075.81
2022-08-07T12:46:59.095Z,100078.16
2022-08-07T12:49:44.274Z,100076.69
2022-08-07T12:52:34.171Z,100076.28
2022-08-07T12:55:09.750Z,100087.66
2022-08-07T12:58:01.264Z,100065.91
2022-08-07T13:00:50.170Z,100069.63
2022-08-07T13:04:01.900Z,100074.19
2022-08-07T13:07:01.202Z,100068.59
2022-08-07T13:10:19.770Z,100081.03
2022-08-07T13:12:51.824Z,100074.81
2022-08-07T13:15:31.958Z,100059.09
2022-08-07T13:18:26.049Z,100060.13
2022-08-07T13:21:03.942Z,100067.34
2022-08-07T13:24:02.222Z,100061.97
2022-08-07T13:26:36.485Z,100065.50
2022-08-07T13:29:12.961Z,100063.41
2022-08-07T13:31:57.328Z,100065.06
2022-08-07T13:34:36.885Z,100064.25
2022-08-07T13:37:20.047Z,100059.69
2022-08-07T13:40:35.946Z,100059.28
2022-08-07T13:42:49.967Z,100057.66
2022-08-07T13:46:21.619Z,100073.38
2022-08-07T13:48:27.827Z,100063.25
2022-08-07T13:51:20.459Z,100066.94
2022-08-07T13:54:00.772Z,100062.78
2022-08-07T13:56:35.419Z,100061.53
2022-08-07T13:59:13.726Z,100054.88
2022-08-07T14:02:04.161Z,100050.13
2022-08-07T14:04:37.976Z,100053.44
2022-08-07T14:07:17.011Z,100059.63
2022-08-07T14:10:12.189Z,100051.97
2022-08-07T14:12:54.081Z,100040.63
2022-08-07T14:15:32.092Z,100051.38
2022-08-07T14:18:23.707Z,100047.66
2022-08-07T14:21:07.962Z,100051.38
2022-08-07T14:24:00.425Z,100054.50
2022-08-07T14:26:38.992Z,100056.34
2022-08-07T14:30:09.447Z,100058.41
2022-08-07T14:32:04.655Z,100049.91
2022-08-07T14:34:45.926Z,100059.63
2022-08-07T14:37:18.594Z,100053.66
2022-08-07T14:40:16.163Z,100060.06
2022-08-07T14:43:55.711Z,100058.41
2022-08-07T14:45:48.763Z,100058.41
2022-08-07T14:48:21.238Z,100057.56
2022-08-07T14:50:53.495Z,100065.44
2022-08-07T14:54:05.667Z,100057.16
2022-08-07T14:56:15.644Z,100064.44
2022-08-07T14:59:13.925Z,100057.78
2022-08-07T15:04:53.325Z,100064.44
2022-08-07T15:07:24.018Z,100064.22
2022-08-07T15:13:16.895Z,100077.69
2022-08-07T15:15:52.554Z,100076.22
2022-08-07T15:18:28.547Z,100078.69
2022-08-07T15:21:08.048Z,100072.06
2022-08-07T15:25:14.458Z,100086.56
2022-08-07T15:26:37.939Z,100085.34
2022-08-07T15:30:09.566Z,100082.84
2022-08-07T15:34:57.214Z,100093.41
2022-08-07T15:38:04.911Z,100092.38
2022-08-07T15:40:34.456Z,100091.97
2022-08-07T15:46:32.429Z,100093.41
2022-08-07T15:49:17.506Z,100091.53
2022-08-07T15:54:34.129Z,100097.97
2022-08-07T15:57:05.103Z,100103.94
2022-08-07T15:59:39.543Z,100105.41
2022-08-07T16:02:24.791Z,100103.56
2022-08-07T16:04:59.944Z,100106.25
2022-08-07T16:08:33.333Z,100114.34
2022-08-07T16:10:24.531Z,100111.84
2022-08-07T16:13:18.023Z,100116.81
2022-08-07T16:16:48.319Z,100113.06
2022-08-07T16:19:14.527Z,100118.91
2022-08-07T16:22:03.394Z,100130.88
2022-08-07T16:24:52.549Z,100120.97
2022-08-07T16:27:40.560Z,100118.06
2022-08-07T16:30:30.639Z,100125.72
2022-08-07T16:34:03.082Z,100125.09
2022-08-07T16:36:20.653Z,100130.06
2022-08-07T16:39:40.715Z,100130.28
2022-08-07T16:42:46.673Z,100136.09
2022-08-07T16:46:47.444Z,100138.34
2022-08-07T16:50:28.353Z,100135.03
2022-08-07T16:52:51.371Z,100138.34
2022-08-07T16:55:17.578Z,100142.31
2022-08-07T16:58:03.936Z,100145.22
2022-08-07T17:00:42.017Z,100165.28
2022-08-07T17:03:18.950Z,100162.38
2022-08-07T17:06:29.977Z,100170.28
2022-08-07T17:09:09.116Z,100172.16
2022-08-07T17:12:02.056Z,100168.63
2022-08-07T17:14:49.693Z,100173.59
2022-08-07T17:17:37.004Z,100177.75
2022-08-07T17:20:30.032Z,100174.41
2022-08-07T17:23:13.117Z,100172.75
2022-08-07T17:25:54.775Z,100171.09
2022-08-07T17:28:35.623Z,100172.34
2022-08-07T17:31:16.417Z,100180.81
2022-08-07T17:34:18.102Z,100182.50
2022-08-07T17:36:57.996Z,100179.81
2022-08-07T17:39:58.402Z,100191.44
2022-08-07T17:42:58.225Z,100185.59
2022-08-07T17:45:35.703Z,100185.19
2022-08-07T17:48:10.292Z,100185.63
2022-08-07T17:51:01.673Z,100183.16
2022-08-07T17:54:02.398Z,100182.69
2022-08-07T17:56:32.188Z,100185.38
2022-08-07T17:59:09.252Z,100178.16
2022-08-07T18:01:49.229Z,100184.97
2022-08-07T18:04:31.265Z,100183.34
2022-08-07T18:07:20.725Z,100192.25
2022-08-07T18:10:06.231Z,100190.56
2022-08-07T18:12:52.800Z,100193.06
2022-08-07T18:15:32.887Z,100185.19
2022-08-07T18:18:46.790Z,100194.94
2022-08-07T18:21:38.297Z,100196.78
2022-08-07T18:24:07.244Z,100198.44
2022-08-07T18:26:57.053Z,100201.13
2022-08-07T18:30:06.991Z,100203.00
2022-08-07T18:32:39.415Z,100201.34
2022-08-07T18:35:22.681Z,100195.16
2022-08-07T18:38:55.756Z,100186.88
2022-08-07T18:41:17.233Z,100198.84
2022-08-07T18:43:59.373Z,100194.72
2022-08-07T18:46:33.430Z,100193.91
2022-08-07T18:50:18.967Z,100200.94
2022-08-07T18:52:38.064Z,100194.94
2022-08-07T18:55:42.784Z,100195.97
2022-08-07T18:58:34.526Z,100195.97
2022-08-07T19:02:32.469Z,100196.38
2022-08-07T19:04:09.565Z,100200.13
2022-08-07T19:06:51.660Z,100200.94
2022-08-07T19:09:54.736Z,100193.50
2022-08-07T19:12:26.281Z,100199.69
2022-08-07T19:15:22.785Z,100187.28
2022-08-07T19:18:34.267Z,100193.50
2022-08-07T19:21:45.113Z,100189.75
2022-08-07T19:24:02.991Z,100186.03
2022-08-07T19:27:09.055Z,100192.84
2022-08-07T19:31:01.710Z,100181.69
2022-08-07T19:32:25.998Z,100176.09
2022-08-07T19:35:03.352Z,100180.22
2022-08-07T19:37:56.374Z,100177.97
2022-08-07T19:40:31.874Z,100173.63
2022-08-07T19:43:21.227Z,100180.66
2022-08-07T19:46:07.486Z,100185.44
2022-08-07T19:48:43.807Z,100175.88
2022-08-07T19:51:19.821Z,100179.41
2022-08-07T19:54:34.717Z,100181.06
2022-08-07T19:57:51.765Z,100177.75
2022-08-07T19:59:40.621Z,100188.31
2022-08-07T20:02:19.612Z,100183.94
2022-08-07T20:04:52.031Z,100184.78
2022-08-07T20:07:46.301Z,100186.44
2022-08-07T20:10:37.043Z,100184.78
2022-08-07T20:13:23.503Z,100186.03
2022-08-07T20:15:57.723Z,100202.19
2022-08-07T20:18:32.927Z,100192.22
2022-08-07T20:21:21.204Z,100197.00
2022-08-07T20:23:54.907Z,100200.53
2022-08-07T20:26:38.759Z,100202.59
2022-08-07T20:29:46.908Z,100195.56
2022-08-07T20:32:11.538Z,100202.81
2022-08-07T20:34:55.635Z,100199.06
2022-08-07T20:37:37.133Z,100199.28
2022-08-07T20:40:33.480Z,100199.47
2022-08-07T20:43:14.395Z,100210.88
2022-08-07T20:46:29.014Z,100207.34
2022-08-07T20:48:37.363Z,100205.50
2022-08-07T20:51:09.834Z,100212.53
2022-08-07T20:54:02.935Z,100203.84
2022-08-07T20:56:32.152Z,100208.00
2022-08-07T20:59:06.038Z,100206.94
2022-08-07T21:01:58.302Z,100205.50
2022-08-07T21:04:33.876Z,100212.34
2022-08-07T21:07:14.294Z,100206.31
2022-08-07T21:09:52.863Z,100205.91
2022-08-07T21:12:31.669Z,100210.25
2022-08-07T21:15:03.362Z,100216.25
2022-08-07T21:18:09.102Z,100215.03
2022-08-07T21:20:30.123Z,100223.94
2022-08-07T21:23:08.579Z,100216.66
2022-08-07T21:26:03.365Z,100222.06
2022-08-07T21:28:48.887Z,100225.78
2022-08-07T21:31:49.229Z,100222.06
2022-08-07T21:34:26.786Z,100213.38
2022-08-07T21:37:05.590Z,100219.75
2022-08-07T21:39:51.589Z,100222.66
2022-08-07T21:42:46.123Z,100224.53
2022-08-07T21:46:05.063Z,100225.34
2022-08-07T21:48:29.032Z,100229.28
2022-08-07T21:51:19.343Z,100226.59
2022-08-07T21:53:54.037Z,100226.59
2022-08-07T21:56:36.122Z,100237.16
2022-08-07T21:59:18.516Z,100231.19
2022-08-07T22:02:07.697Z,100216.88
2022-08-07T22:04:53.495Z,100229.28
2022-08-07T22:07:45.854Z,100233.88
2022-08-07T22:10:24.661Z,100222.25
2022-08-07T22:12:57.027Z,100226.97
2022-08-07T22:16:42.993Z,100228.66
2022-08-07T22:18:25.243Z,100226.78
2022-08-07T22:21:02.958Z,100230.34
2022-08-07T22:23:40.482Z,100219.56
2022-08-07T22:26:20.301Z,100223.28
2022-08-07T22:28:56.500Z,100226.97
2022-08-07T22:31:56.378Z,100229.47
2022-08-07T22:34:29.224Z,100228.03
2022-08-07T22:37:09.539Z,100229.06
2022-08-07T22:39:52.549Z,100234.44
2022-08-07T22:42:30.603Z,100225.31
2022-08-07T22:45:03.665Z,100215.59
2022-08-07T22:48:13.971Z,100225.31
2022-08-07T22:51:36.603Z,100233.81
2022-08-07T22:54:16.707Z,100225.13
2022-08-07T22:57:00.747Z,100224.69
2022-08-07T22:59:49.989Z,100224.69
2022-08-07T23:02:42.944Z,100222.00
2022-08-07T23:06:07.698Z,100216.22
2022-08-07T23:08:46.737Z,100223.25
2022-08-07T23:11:41.178Z,100221.41
2022-08-07T23:14:27.699Z,100224.09
2022-08-07T23:17:20.333Z,100225.34
2022-08-07T23:20:16.924Z,100222.84
2022-08-07T23:23:09.765Z,100226.53
2022-08-07T23:26:00.627Z,100234.22
2022-08-07T23:28:54.429Z,100226.78
2022-08-07T23:32:48.571Z,100238.78
2022-08-07T23:35:01.168Z,100232.97
2022-08-07T23:38:00.523Z,100229.88
2022-08-07T23:40:39.624Z,100227.19
2022-08-07T23:43:38.767Z,100226.13
2022-08-07T23:46:27.364Z,100220.97
2022-08-07T23:49:42.073Z,100228.22
2022-08-07T23:53:00.637Z,100225.75
2022-08-07T23:55:47.178Z,100230.69
2022-08-07T23:58:21.321Z,100220.56
